sensor_id;sensor_type;location;lat;lon;timestamp;temperature;humidity
19888;DHT22;10106;51.332;12.336;2023-01-26T00:01:43;0.70;99.90
19888;DHT22;10106;51.332;12.336;2023-01-26T00:04:10;0.70;99.90
19888;DHT22;10106;51.332;12.336;2023-01-26T00:06:36;0.70;99.90
19888;DHT22;10106;51.332;12.336;2023-01-26T00:09:02;0.70;99.90
19888;DHT22;10106;51.332;12.336;2023-01-26T00:11:28;0.70;99.90
19888;DHT22;10106;51.332;12.336;2023-01-26T00:13:59;0.70;99.90
19888;DHT22;10106;51.332;12.336;2023-01-26T00:16:26;0.70;99.90
19888;DHT22;10106;51.332;12.336;2023-01-26T00:18:51;0.70;99.90
19888;DHT22;10106;51.332;12.336;2023-01-26T00:21:20;0.70;99.90
19888;DHT22;10106;51.332;12.336;2023-01-26T00:23:47;0.70;99.90
19888;DHT22;10106;51.332;12.336;2023-01-26T00:26:15;0.70;99.90
19888;DHT22;10106;51.332;12.336;2023-01-26T00:28:41;0.70;99.90
19888;DHT22;10106;51.332;12.336;2023-01-26T00:31:10;0.70;99.90
19888;DHT22;10106;51.332;12.336;2023-01-26T00:33:37;0.70;99.90
19888;DHT22;10106;51.332;12.336;2023-01-26T00:36:03;0.70;99.90
19888;DHT22;10106;51.332;12.336;2023-01-26T00:38:29;0.70;99.90
19888;DHT22;10106;51.332;12.336;2023-01-26T00:40:55;0.70;99.90
19888;DHT22;10106;51.332;12.336;2023-01-26T00:43:21;0.60;99.90
19888;DHT22;10106;51.332;12.336;2023-01-26T00:45:46;0.60;99.90
19888;DHT22;10106;51.332;12.336;2023-01-26T00:48:12;0.60;99.90
19888;DHT22;10106;51.332;12.336;2023-01-26T00:50:38;0.50;99.90
19888;DHT22;10106;51.332;12.336;2023-01-26T00:53:03;0.50;99.90
19888;DHT22;10106;51.332;12.336;2023-01-26T00:55:29;0.50;99.90
19888;DHT22;10106;51.332;12.336;2023-01-26T00:58:03;0.50;99.90
19888;DHT22;10106;51.332;12.336;2023-01-26T01:00:31;0.50;99.90
19888;DHT22;10106;51.332;12.336;2023-01-26T01:02:57;0.50;99.90
19888;DHT22;10106;51.332;12.336;2023-01-26T01:05:25;0.40;99.90
19888;DHT22;10106;51.332;12.336;2023-01-26T01:07:51;0.40;99.90
19888;DHT22;10106;51.332;12.336;2023-01-26T01:10:17;0.40;99.90
19888;DHT22;10106;51.332;12.336;2023-01-26T01:12:43;0.30;99.90
19888;DHT22;10106;51.332;12.336;2023-01-26T01:15:09;0.30;99.90
19888;DHT22;10106;51.332;12.336;2023-01-26T01:17:35;0.30;99.90
19888;DHT22;10106;51.332;12.336;2023-01-26T01:20:06;0.30;99.90
19888;DHT22;10106;51.332;12.336;2023-01-26T01:22:33;0.30;99.90
19888;DHT22;10106;51.332;12.336;2023-01-26T01:24:58;0.20;99.90
19888;DHT22;10106;51.332;12.336;2023-01-26T01:27:24;0.20;99.90
19888;DHT22;10106;51.332;12.336;2023-01-26T01:29:50;0.20;99.90
19888;DHT22;10106;51.332;12.336;2023-01-26T01:32:16;0.20;99.90
19888;DHT22;10106;51.332;12.336;2023-01-26T01:34:42;0.20;99.90
19888;DHT22;10106;51.332;12.336;2023-01-26T01:37:08;0.10;99.90
19888;DHT22;10106;51.332;12.336;2023-01-26T01:39:33;0.20;99.90
19888;DHT22;10106;51.332;12.336;2023-01-26T01:41:59;0.20;99.90
19888;DHT22;10106;51.332;12.336;2023-01-26T01:44:25;0.20;99.90
19888;DHT22;10106;51.332;12.336;2023-01-26T01:47:12;0.20;99.90
19888;DHT22;10106;51.332;12.336;2023-01-26T01:49:50;0.20;99.90
19888;DHT22;10106;51.332;12.336;2023-01-26T01:52:17;0.20;99.90
19888;DHT22;10106;51.332;12.336;2023-01-26T01:57:29;0.20;99.90
19888;DHT22;10106;51.332;12.336;2023-01-26T02:00:06;0.20;99.90
19888;DHT22;10106;51.332;12.336;2023-01-26T02:02:32;0.20;99.90
19888;DHT22;10106;51.332;12.336;2023-01-26T02:05:06;0.20;99.90
19888;DHT22;10106;51.332;12.336;2023-01-26T02:07:32;0.20;99.90
19888;DHT22;10106;51.332;12.336;2023-01-26T02:09:58;0.20;99.90
19888;DHT22;10106;51.332;12.336;2023-01-26T02:12:44;0.20;99.90
19888;DHT22;10106;51.332;12.336;2023-01-26T02:15:10;0.20;99.90
19888;DHT22;10106;51.332;12.336;2023-01-26T02:17:36;0.20;99.90
19888;DHT22;10106;51.332;12.336;2023-01-26T02:22:43;0.20;99.90
19888;DHT22;10106;51.332;12.336;2023-01-26T02:28:17;0.20;99.90
19888;DHT22;10106;51.332;12.336;2023-01-26T02:30:44;0.20;99.90
19888;DHT22;10106;51.332;12.336;2023-01-26T02:33:21;0.20;99.90
19888;DHT22;10106;51.332;12.336;2023-01-26T02:35:48;0.20;99.90
19888;DHT22;10106;51.332;12.336;2023-01-26T02:38:14;0.20;99.90
19888;DHT22;10106;51.332;12.336;2023-01-26T02:40:56;0.20;99.90
19888;DHT22;10106;51.332;12.336;2023-01-26T02:43:24;0.20;99.90
19888;DHT22;10106;51.332;12.336;2023-01-26T02:45:51;0.20;99.90
19888;DHT22;10106;51.332;12.336;2023-01-26T02:48:17;0.20;99.90
19888;DHT22;10106;51.332;12.336;2023-01-26T02:51:01;0.10;99.90
19888;DHT22;10106;51.332;12.336;2023-01-26T02:53:27;0.20;99.90
19888;DHT22;10106;51.332;12.336;2023-01-26T02:55:53;0.20;99.90
19888;DHT22;10106;51.332;12.336;2023-01-26T02:58:18;0.20;99.90
19888;DHT22;10106;51.332;12.336;2023-01-26T03:00:44;0.20;99.90
19888;DHT22;10106;51.332;12.336;2023-01-26T03:03:18;0.20;99.90
19888;DHT22;10106;51.332;12.336;2023-01-26T03:05:45;0.20;99.90
19888;DHT22;10106;51.332;12.336;2023-01-26T03:08:11;0.20;99.90
19888;DHT22;10106;51.332;12.336;2023-01-26T03:10:37;0.20;99.90
19888;DHT22;10106;51.332;12.336;2023-01-26T03:13:06;0.20;99.90
19888;DHT22;10106;51.332;12.336;2023-01-26T03:15:32;0.20;99.90
19888;DHT22;10106;51.332;12.336;2023-01-26T03:18:18;0.20;99.90
19888;DHT22;10106;51.332;12.336;2023-01-26T03:21:06;0.20;99.90
19888;DHT22;10106;51.332;12.336;2023-01-26T03:23:50;0.10;99.90
19888;DHT22;10106;51.332;12.336;2023-01-26T03:26:35;0.10;99.90
19888;DHT22;10106;51.332;12.336;2023-01-26T03:29:19;0.10;99.90
19888;DHT22;10106;51.332;12.336;2023-01-26T03:31:45;0.00;99.90
19888;DHT22;10106;51.332;12.336;2023-01-26T03:34:11;0.00;99.90
19888;DHT22;10106;51.332;12.336;2023-01-26T03:36:36;0.00;99.90
19888;DHT22;10106;51.332;12.336;2023-01-26T03:39:05;-0.10;99.90
19888;DHT22;10106;51.332;12.336;2023-01-26T03:41:31;-0.10;99.90
19888;DHT22;10106;51.332;12.336;2023-01-26T03:44:15;-0.10;99.90
19888;DHT22;10106;51.332;12.336;2023-01-26T03:46:59;-0.10;99.90
19888;DHT22;10106;51.332;12.336;2023-01-26T03:49:43;-0.10;99.90
19888;DHT22;10106;51.332;12.336;2023-01-26T03:52:31;-0.20;99.90
19888;DHT22;10106;51.332;12.336;2023-01-26T03:55:15;-0.30;99.90
19888;DHT22;10106;51.332;12.336;2023-01-26T03:57:59;-0.30;99.90
19888;DHT22;10106;51.332;12.336;2023-01-26T04:00:25;-0.30;99.90
19888;DHT22;10106;51.332;12.336;2023-01-26T04:02:50;-0.40;99.90
19888;DHT22;10106;51.332;12.336;2023-01-26T04:05:35;-0.40;99.90
19888;DHT22;10106;51.332;12.336;2023-01-26T04:08:19;-0.40;99.90
19888;DHT22;10106;51.332;12.336;2023-01-26T04:11:02;-0.40;99.90
19888;DHT22;10106;51.332;12.336;2023-01-26T04:13:28;-0.50;99.90
19888;DHT22;10106;51.332;12.336;2023-01-26T04:16:12;-0.50;99.90
19888;DHT22;10106;51.332;12.336;2023-01-26T04:18:56;-0.50;99.90
19888;DHT22;10106;51.332;12.336;2023-01-26T04:21:40;-0.50;99.90
19888;DHT22;10106;51.332;12.336;2023-01-26T04:24:06;-0.40;99.90
19888;DHT22;10106;51.332;12.336;2023-01-26T04:26:39;-0.40;99.90
19888;DHT22;10106;51.332;12.336;2023-01-26T04:29:07;-0.50;99.90
19888;DHT22;10106;51.332;12.336;2023-01-26T04:31:34;-0.50;99.90
19888;DHT22;10106;51.332;12.336;2023-01-26T04:34:00;-0.40;99.90
19888;DHT22;10106;51.332;12.336;2023-01-26T04:36:27;-0.40;99.90
19888;DHT22;10106;51.332;12.336;2023-01-26T04:38:53;-0.50;99.90
19888;DHT22;10106;51.332;12.336;2023-01-26T04:41:19;-0.50;99.90
19888;DHT22;10106;51.332;12.336;2023-01-26T04:43:45;-0.50;99.90
19888;DHT22;10106;51.332;12.336;2023-01-26T04:46:10;-0.40;99.90
19888;DHT22;10106;51.332;12.336;2023-01-26T04:48:36;-0.50;99.90
19888;DHT22;10106;51.332;12.336;2023-01-26T04:51:05;-0.50;99.90
19888;DHT22;10106;51.332;12.336;2023-01-26T04:53:32;-0.50;99.90
19888;DHT22;10106;51.332;12.336;2023-01-26T04:55:58;-0.50;99.90
19888;DHT22;10106;51.332;12.336;2023-01-26T04:58:24;-0.50;99.90
19888;DHT22;10106;51.332;12.336;2023-01-26T05:00:54;-0.50;99.90
19888;DHT22;10106;51.332;12.336;2023-01-26T05:03:20;-0.50;99.90
19888;DHT22;10106;51.332;12.336;2023-01-26T05:05:50;-0.50;99.90
19888;DHT22;10106;51.332;12.336;2023-01-26T05:08:17;-0.50;99.90
19888;DHT22;10106;51.332;12.336;2023-01-26T05:10:44;-0.50;99.90
19888;DHT22;10106;51.332;12.336;2023-01-26T05:13:10;-0.50;99.90
19888;DHT22;10106;51.332;12.336;2023-01-26T05:15:36;-0.50;99.90
19888;DHT22;10106;51.332;12.336;2023-01-26T05:18:02;-0.50;99.90
19888;DHT22;10106;51.332;12.336;2023-01-26T05:20:28;-0.50;99.90
19888;DHT22;10106;51.332;12.336;2023-01-26T05:22:54;-0.40;99.90
19888;DHT22;10106;51.332;12.336;2023-01-26T05:25:20;-0.40;99.90
19888;DHT22;10106;51.332;12.336;2023-01-26T05:27:47;-0.40;99.90
19888;DHT22;10106;51.332;12.336;2023-01-26T05:30:13;-0.40;99.90
19888;DHT22;10106;51.332;12.336;2023-01-26T05:32:39;-0.40;99.90
19888;DHT22;10106;51.332;12.336;2023-01-26T05:35:05;-0.50;99.90
19888;DHT22;10106;51.332;12.336;2023-01-26T05:37:31;-0.50;99.90
19888;DHT22;10106;51.332;12.336;2023-01-26T05:39:57;-0.50;99.90
19888;DHT22;10106;51.332;12.336;2023-01-26T05:42:23;-0.50;99.90
19888;DHT22;10106;51.332;12.336;2023-01-26T05:44:49;-0.50;99.90
19888;DHT22;10106;51.332;12.336;2023-01-26T05:47:15;-0.50;99.90
19888;DHT22;10106;51.332;12.336;2023-01-26T05:49:41;-0.40;99.90
19888;DHT22;10106;51.332;12.336;2023-01-26T05:52:15;-0.40;99.90
19888;DHT22;10106;51.332;12.336;2023-01-26T05:54:42;-0.40;99.90
19888;DHT22;10106;51.332;12.336;2023-01-26T05:57:08;-0.40;99.90
19888;DHT22;10106;51.332;12.336;2023-01-26T05:59:34;-0.40;99.90
19888;DHT22;10106;51.332;12.336;2023-01-26T06:07:13;-0.40;99.90
19888;DHT22;10106;51.332;12.336;2023-01-26T06:09:39;-0.40;99.90
19888;DHT22;10106;51.332;12.336;2023-01-26T06:12:08;-0.50;99.90
19888;DHT22;10106;51.332;12.336;2023-01-26T06:14:36;-0.40;99.90
19888;DHT22;10106;51.332;12.336;2023-01-26T06:17:01;-0.50;99.90
19888;DHT22;10106;51.332;12.336;2023-01-26T06:19:27;-0.50;99.90
19888;DHT22;10106;51.332;12.336;2023-01-26T06:21:52;-0.40;99.90
19888;DHT22;10106;51.332;12.336;2023-01-26T06:24:18;-0.40;99.90
19888;DHT22;10106;51.332;12.336;2023-01-26T06:26:46;-0.40;99.90
19888;DHT22;10106;51.332;12.336;2023-01-26T06:29:12;-0.40;99.90
19888;DHT22;10106;51.332;12.336;2023-01-26T06:31:39;-0.40;99.90
19888;DHT22;10106;51.332;12.336;2023-01-26T06:34:04;-0.40;99.90
19888;DHT22;10106;51.332;12.336;2023-01-26T06:36:30;-0.40;99.90
19888;DHT22;10106;51.332;12.336;2023-01-26T06:38:56;-0.40;99.90
19888;DHT22;10106;51.332;12.336;2023-01-26T06:41:21;-0.40;99.90
19888;DHT22;10106;51.332;12.336;2023-01-26T06:43:47;-0.30;99.90
19888;DHT22;10106;51.332;12.336;2023-01-26T06:46:15;-0.20;99.90
19888;DHT22;10106;51.332;12.336;2023-01-26T06:48:40;-0.20;99.90
19888;DHT22;10106;51.332;12.336;2023-01-26T06:53:53;0.00;99.90
19888;DHT22;10106;51.332;12.336;2023-01-26T06:56:20;0.10;99.90
19888;DHT22;10106;51.332;12.336;2023-01-26T06:58:46;0.20;99.90
19888;DHT22;10106;51.332;12.336;2023-01-26T07:01:20;0.10;99.90
19888;DHT22;10106;51.332;12.336;2023-01-26T07:03:50;0.10;99.90
19888;DHT22;10106;51.332;12.336;2023-01-26T07:06:16;0.10;99.90
19888;DHT22;10106;51.332;12.336;2023-01-26T07:08:42;0.10;99.90
19888;DHT22;10106;51.332;12.336;2023-01-26T07:11:08;0.10;99.90
19888;DHT22;10106;51.332;12.336;2023-01-26T07:13:34;0.10;99.90
19888;DHT22;10106;51.332;12.336;2023-01-26T07:18:27;0.00;99.90
19888;DHT22;10106;51.332;12.336;2023-01-26T07:20:52;-0.10;99.90
19888;DHT22;10106;51.332;12.336;2023-01-26T07:23:18;-0.10;99.90
19888;DHT22;10106;51.332;12.336;2023-01-26T07:25:44;-0.10;99.90
19888;DHT22;10106;51.332;12.336;2023-01-26T07:28:09;-0.10;99.90
19888;DHT22;10106;51.332;12.336;2023-01-26T07:30:35;-0.10;99.90
19888;DHT22;10106;51.332;12.336;2023-01-26T07:33:01;-0.10;99.90
19888;DHT22;10106;51.332;12.336;2023-01-26T07:35:27;-0.10;99.90
19888;DHT22;10106;51.332;12.336;2023-01-26T07:37:54;-0.10;99.90
19888;DHT22;10106;51.332;12.336;2023-01-26T07:40:22;-0.10;99.90
19888;DHT22;10106;51.332;12.336;2023-01-26T07:42:48;-0.10;99.90
19888;DHT22;10106;51.332;12.336;2023-01-26T07:45:13;-0.10;99.90
19888;DHT22;10106;51.332;12.336;2023-01-26T07:47:42;0.00;99.90
19888;DHT22;10106;51.332;12.336;2023-01-26T07:50:11;0.00;99.90
19888;DHT22;10106;51.332;12.336;2023-01-26T07:52:38;0.10;99.90
19888;DHT22;10106;51.332;12.336;2023-01-26T07:55:04;0.10;99.90
19888;DHT22;10106;51.332;12.336;2023-01-26T07:57:30;0.20;99.90
19888;DHT22;10106;51.332;12.336;2023-01-26T07:59:56;0.20;99.90
19888;DHT22;10106;51.332;12.336;2023-01-26T08:02:22;0.20;99.90
19888;DHT22;10106;51.332;12.336;2023-01-26T08:04:47;0.30;99.90
19888;DHT22;10106;51.332;12.336;2023-01-26T08:07:13;0.20;99.90
19888;DHT22;10106;51.332;12.336;2023-01-26T08:09:39;0.20;99.90
19888;DHT22;10106;51.332;12.336;2023-01-26T08:12:05;0.30;99.90
19888;DHT22;10106;51.332;12.336;2023-01-26T08:14:32;0.30;99.90
19888;DHT22;10106;51.332;12.336;2023-01-26T08:16:57;0.20;99.90
19888;DHT22;10106;51.332;12.336;2023-01-26T08:19:23;0.30;99.90
19888;DHT22;10106;51.332;12.336;2023-01-26T08:21:49;0.20;99.90
19888;DHT22;10106;51.332;12.336;2023-01-26T08:24:14;0.30;99.90
19888;DHT22;10106;51.332;12.336;2023-01-26T08:26:40;0.30;99.90
19888;DHT22;10106;51.332;12.336;2023-01-26T08:29:06;0.20;99.90
19888;DHT22;10106;51.332;12.336;2023-01-26T08:31:32;0.20;99.90
19888;DHT22;10106;51.332;12.336;2023-01-26T08:33:58;0.10;99.90
19888;DHT22;10106;51.332;12.336;2023-01-26T08:36:24;0.10;99.90
19888;DHT22;10106;51.332;12.336;2023-01-26T08:38:50;0.10;99.90
19888;DHT22;10106;51.332;12.336;2023-01-26T08:41:17;0.00;99.90
19888;DHT22;10106;51.332;12.336;2023-01-26T08:43:42;-0.10;99.90
19888;DHT22;10106;51.332;12.336;2023-01-26T08:46:09;0.00;99.90
19888;DHT22;10106;51.332;12.336;2023-01-26T08:48:35;-0.10;99.90
19888;DHT22;10106;51.332;12.336;2023-01-26T08:51:03;-0.10;99.90
19888;DHT22;10106;51.332;12.336;2023-01-26T08:53:31;-0.20;99.90
19888;DHT22;10106;51.332;12.336;2023-01-26T08:55:59;-0.30;99.90
19888;DHT22;10106;51.332;12.336;2023-01-26T08:58:25;-0.30;99.90
19888;DHT22;10106;51.332;12.336;2023-01-26T09:00:51;-0.30;99.90
19888;DHT22;10106;51.332;12.336;2023-01-26T09:03:16;-0.30;99.90
19888;DHT22;10106;51.332;12.336;2023-01-26T09:05:42;-0.30;99.90
19888;DHT22;10106;51.332;12.336;2023-01-26T09:08:24;-0.30;99.90
19888;DHT22;10106;51.332;12.336;2023-01-26T09:10:50;-0.30;99.90
19888;DHT22;10106;51.332;12.336;2023-01-26T09:13:15;-0.30;99.90
19888;DHT22;10106;51.332;12.336;2023-01-26T09:15:41;-0.30;99.90
19888;DHT22;10106;51.332;12.336;2023-01-26T09:18:07;-0.30;99.90
19888;DHT22;10106;51.332;12.336;2023-01-26T09:20:33;-0.30;99.90
19888;DHT22;10106;51.332;12.336;2023-01-26T09:22:59;-0.40;99.90
19888;DHT22;10106;51.332;12.336;2023-01-26T09:25:24;-0.30;99.90
19888;DHT22;10106;51.332;12.336;2023-01-26T09:27:50;-0.30;99.90
19888;DHT22;10106;51.332;12.336;2023-01-26T09:30:16;-0.30;99.90
19888;DHT22;10106;51.332;12.336;2023-01-26T09:32:42;-0.40;99.90
19888;DHT22;10106;51.332;12.336;2023-01-26T09:35:08;-0.30;99.90
19888;DHT22;10106;51.332;12.336;2023-01-26T09:37:37;-0.30;99.90
19888;DHT22;10106;51.332;12.336;2023-01-26T09:40:04;-0.30;99.90
19888;DHT22;10106;51.332;12.336;2023-01-26T09:48:03;-0.40;99.90
19888;DHT22;10106;51.332;12.336;2023-01-26T09:53:54;-0.40;99.90
19888;DHT22;10106;51.332;12.336;2023-01-26T09:56:25;-0.40;99.90
19888;DHT22;10106;51.332;12.336;2023-01-26T09:59:02;-0.40;99.90
19888;DHT22;10106;51.332;12.336;2023-01-26T10:06:51;-0.30;99.90
19888;DHT22;10106;51.332;12.336;2023-01-26T10:09:23;-0.40;99.90
19888;DHT22;10106;51.332;12.336;2023-01-26T10:11:59;-0.30;99.90
19888;DHT22;10106;51.332;12.336;2023-01-26T10:16:59;-0.40;99.90
19888;DHT22;10106;51.332;12.336;2023-01-26T10:21:55;-0.40;99.90
19888;DHT22;10106;51.332;12.336;2023-01-26T10:24:23;-0.40;99.90
19888;DHT22;10106;51.332;12.336;2023-01-26T10:26:52;-0.30;99.90
19888;DHT22;10106;51.332;12.336;2023-01-26T10:29:21;-0.30;99.90
19888;DHT22;10106;51.332;12.336;2023-01-26T10:31:47;0.00;99.90
19888;DHT22;10106;51.332;12.336;2023-01-26T10:34:23;0.10;99.90
19888;DHT22;10106;51.332;12.336;2023-01-26T10:36:55;0.10;99.90
19888;DHT22;10106;51.332;12.336;2023-01-26T10:39:23;0.20;99.90
19888;DHT22;10106;51.332;12.336;2023-01-26T10:41:59;0.10;99.90
19888;DHT22;10106;51.332;12.336;2023-01-26T10:44:37;0.10;99.90
19888;DHT22;10106;51.332;12.336;2023-01-26T10:47:16;0.10;99.90
19888;DHT22;10106;51.332;12.336;2023-01-26T10:49:42;0.10;99.90
19888;DHT22;10106;51.332;12.336;2023-01-26T10:52:16;0.10;99.90
19888;DHT22;10106;51.332;12.336;2023-01-26T10:54:45;0.20;99.90
19888;DHT22;10106;51.332;12.336;2023-01-26T10:57:26;0.20;99.90
19888;DHT22;10106;51.332;12.336;2023-01-26T10:59:57;0.10;99.90
19888;DHT22;10106;51.332;12.336;2023-01-26T11:02:29;0.10;99.90
19888;DHT22;10106;51.332;12.336;2023-01-26T11:07:35;0.10;99.90
19888;DHT22;10106;51.332;12.336;2023-01-26T11:12:48;0.40;99.90
19888;DHT22;10106;51.332;12.336;2023-01-26T11:15:21;0.40;99.90
19888;DHT22;10106;51.332;12.336;2023-01-26T11:17:59;0.30;99.90
19888;DHT22;10106;51.332;12.336;2023-01-26T11:26:39;0.40;99.90
19888;DHT22;10106;51.332;12.336;2023-01-26T11:39:41;0.30;99.90
19888;DHT22;10106;51.332;12.336;2023-01-26T11:42:24;0.20;99.90
19888;DHT22;10106;51.332;12.336;2023-01-26T11:45:49;0.10;99.90
19888;DHT22;10106;51.332;12.336;2023-01-26T11:53:04;0.00;99.90
19888;DHT22;10106;51.332;12.336;2023-01-26T11:58:47;0.00;99.90
19888;DHT22;10106;51.332;12.336;2023-01-26T12:03:50;-0.10;99.90
19888;DHT22;10106;51.332;12.336;2023-01-26T12:09:00;-0.50;99.90
19888;DHT22;10106;51.332;12.336;2023-01-26T12:11:56;-0.40;99.90
19888;DHT22;10106;51.332;12.336;2023-01-26T12:17:23;-0.40;99.90
19888;DHT22;10106;51.332;12.336;2023-01-26T12:22:28;-0.40;99.90
19888;DHT22;10106;51.332;12.336;2023-01-26T12:27:52;-0.40;99.90
19888;DHT22;10106;51.332;12.336;2023-01-26T12:32:45;-0.40;99.90
19888;DHT22;10106;51.332;12.336;2023-01-26T12:35:12;-0.40;99.90
19888;DHT22;10106;51.332;12.336;2023-01-26T12:37:56;-0.30;99.90
19888;DHT22;10106;51.332;12.336;2023-01-26T12:45:31;-0.40;99.90
19888;DHT22;10106;51.332;12.336;2023-01-26T12:48:19;-0.40;99.90
19888;DHT22;10106;51.332;12.336;2023-01-26T12:50:55;-0.40;99.90
19888;DHT22;10106;51.332;12.336;2023-01-26T12:53:29;-0.40;99.90
19888;DHT22;10106;51.332;12.336;2023-01-26T12:58:41;-0.40;99.90
19888;DHT22;10106;51.332;12.336;2023-01-26T13:01:14;-0.30;99.90
19888;DHT22;10106;51.332;12.336;2023-01-26T13:03:57;-0.40;99.90
19888;DHT22;10106;51.332;12.336;2023-01-26T13:06:27;-0.40;99.90
19888;DHT22;10106;51.332;12.336;2023-01-26T13:11:45;-0.60;99.90
19888;DHT22;10106;51.332;12.336;2023-01-26T13:16:49;-0.80;99.90
19888;DHT22;10106;51.332;12.336;2023-01-26T13:19:49;-1.00;99.90
19888;DHT22;10106;51.332;12.336;2023-01-26T13:24:56;-1.10;99.90
19888;DHT22;10106;51.332;12.336;2023-01-26T13:27:39;-1.20;99.90
19888;DHT22;10106;51.332;12.336;2023-01-26T13:35:19;-1.30;99.90
19888;DHT22;10106;51.332;12.336;2023-01-26T13:37:59;-1.30;99.90
19888;DHT22;10106;51.332;12.336;2023-01-26T13:40:30;-1.30;99.90
19888;DHT22;10106;51.332;12.336;2023-01-26T13:51:05;-1.10;99.90
19888;DHT22;10106;51.332;12.336;2023-01-26T13:53:41;-1.10;99.90
19888;DHT22;10106;51.332;12.336;2023-01-26T13:59:04;-1.10;99.90
19888;DHT22;10106;51.332;12.336;2023-01-26T14:01:30;-1.20;99.90
19888;DHT22;10106;51.332;12.336;2023-01-26T14:04:05;-1.10;99.90
19888;DHT22;10106;51.332;12.336;2023-01-26T14:06:31;-1.10;99.90
19888;DHT22;10106;51.332;12.336;2023-01-26T14:08:57;-1.00;99.90
19888;DHT22;10106;51.332;12.336;2023-01-26T14:11:28;-1.00;99.90
19888;DHT22;10106;51.332;12.336;2023-01-26T14:14:00;-1.00;99.90
19888;DHT22;10106;51.332;12.336;2023-01-26T14:16:34;-1.00;99.90
19888;DHT22;10106;51.332;12.336;2023-01-26T14:19:05;-1.00;99.90
19888;DHT22;10106;51.332;12.336;2023-01-26T14:21:31;-1.10;99.90
19888;DHT22;10106;51.332;12.336;2023-01-26T14:23:58;-1.00;99.90
19888;DHT22;10106;51.332;12.336;2023-01-26T14:26:33;-1.10;99.90
19888;DHT22;10106;51.332;12.336;2023-01-26T14:28:59;-1.10;99.90
19888;DHT22;10106;51.332;12.336;2023-01-26T14:31:27;-1.00;99.90
19888;DHT22;10106;51.332;12.336;2023-01-26T14:33:55;-1.00;99.90
19888;DHT22;10106;51.332;12.336;2023-01-26T14:36:29;-0.90;99.90
19888;DHT22;10106;51.332;12.336;2023-01-26T14:38:58;-1.00;99.90
19888;DHT22;10106;51.332;12.336;2023-01-26T14:41:29;-1.00;99.90
19888;DHT22;10106;51.332;12.336;2023-01-26T14:43:57;-0.90;99.90
19888;DHT22;10106;51.332;12.336;2023-01-26T14:49:59;-0.90;99.90
19888;DHT22;10106;51.332;12.336;2023-01-26T14:52:16;-0.90;99.90
19888;DHT22;10106;51.332;12.336;2023-01-26T14:54:43;-0.90;99.90
19888;DHT22;10106;51.332;12.336;2023-01-26T14:57:15;-0.80;99.90
19888;DHT22;10106;51.332;12.336;2023-01-26T14:59:43;-0.90;99.90
19888;DHT22;10106;51.332;12.336;2023-01-26T15:05:02;-0.80;99.90
19888;DHT22;10106;51.332;12.336;2023-01-26T15:10:00;-0.80;99.90
19888;DHT22;10106;51.332;12.336;2023-01-26T15:12:26;-0.60;99.90
19888;DHT22;10106;51.332;12.336;2023-01-26T15:14:57;-0.50;99.90
19888;DHT22;10106;51.332;12.336;2023-01-26T15:17:41;-0.50;99.90
19888;DHT22;10106;51.332;12.336;2023-01-26T15:22:39;-0.30;99.90
19888;DHT22;10106;51.332;12.336;2023-01-26T15:25:16;-0.30;99.90
19888;DHT22;10106;51.332;12.336;2023-01-26T15:27:51;-0.40;99.90
19888;DHT22;10106;51.332;12.336;2023-01-26T15:30:20;-0.50;99.90
19888;DHT22;10106;51.332;12.336;2023-01-26T15:32:47;-0.50;99.90
19888;DHT22;10106;51.332;12.336;2023-01-26T15:37:43;-0.70;99.90
19888;DHT22;10106;51.332;12.336;2023-01-26T15:40:09;-0.70;99.90
19888;DHT22;10106;51.332;12.336;2023-01-26T15:42:35;-0.70;99.90
19888;DHT22;10106;51.332;12.336;2023-01-26T15:45:01;-0.70;99.90
19888;DHT22;10106;51.332;12.336;2023-01-26T15:47:26;-0.70;99.90
19888;DHT22;10106;51.332;12.336;2023-01-26T15:49:52;-0.70;99.90
19888;DHT22;10106;51.332;12.336;2023-01-26T15:52:21;-0.70;99.90
19888;DHT22;10106;51.332;12.336;2023-01-26T15:54:50;-0.70;99.90
19888;DHT22;10106;51.332;12.336;2023-01-26T15:57:16;-0.70;99.90
19888;DHT22;10106;51.332;12.336;2023-01-26T15:59:42;-0.70;99.90
19888;DHT22;10106;51.332;12.336;2023-01-26T16:02:16;-0.60;99.90
19888;DHT22;10106;51.332;12.336;2023-01-26T16:04:43;-0.60;99.90
19888;DHT22;10106;51.332;12.336;2023-01-26T16:07:18;-0.60;99.90
19888;DHT22;10106;51.332;12.336;2023-01-26T16:09:43;-0.60;99.90
19888;DHT22;10106;51.332;12.336;2023-01-26T16:12:17;-0.60;99.90
19888;DHT22;10106;51.332;12.336;2023-01-26T16:14:43;-0.70;99.90
19888;DHT22;10106;51.332;12.336;2023-01-26T16:17:13;-0.80;99.90
19888;DHT22;10106;51.332;12.336;2023-01-26T16:19:40;-0.80;99.90
19888;DHT22;10106;51.332;12.336;2023-01-26T16:22:08;-0.80;99.90
19888;DHT22;10106;51.332;12.336;2023-01-26T16:24:34;-0.80;99.90
19888;DHT22;10106;51.332;12.336;2023-01-26T16:27:00;-0.80;99.90
19888;DHT22;10106;51.332;12.336;2023-01-26T16:29:25;-0.80;99.90
19888;DHT22;10106;51.332;12.336;2023-01-26T16:31:51;-0.80;99.90
19888;DHT22;10106;51.332;12.336;2023-01-26T16:34:17;-0.80;99.90
19888;DHT22;10106;51.332;12.336;2023-01-26T16:36:42;-0.80;99.90
19888;DHT22;10106;51.332;12.336;2023-01-26T16:39:08;-0.80;99.90
19888;DHT22;10106;51.332;12.336;2023-01-26T16:41:34;-0.80;99.90
19888;DHT22;10106;51.332;12.336;2023-01-26T16:44:00;-0.80;99.90
19888;DHT22;10106;51.332;12.336;2023-01-26T16:46:27;-0.80;99.90
19888;DHT22;10106;51.332;12.336;2023-01-26T16:48:53;-0.80;99.90
19888;DHT22;10106;51.332;12.336;2023-01-26T16:51:28;-0.70;99.90
19888;DHT22;10106;51.332;12.336;2023-01-26T16:53:54;-0.70;99.90
19888;DHT22;10106;51.332;12.336;2023-01-26T16:56:21;-0.70;99.90
19888;DHT22;10106;51.332;12.336;2023-01-26T16:58:47;-0.70;99.90
19888;DHT22;10106;51.332;12.336;2023-01-26T17:01:36;-0.70;99.90
19888;DHT22;10106;51.332;12.336;2023-01-26T17:04:02;-0.70;99.90
19888;DHT22;10106;51.332;12.336;2023-01-26T17:06:28;-0.70;99.90
19888;DHT22;10106;51.332;12.336;2023-01-26T17:08:54;-0.70;99.90
19888;DHT22;10106;51.332;12.336;2023-01-26T17:11:26;-0.70;99.90
19888;DHT22;10106;51.332;12.336;2023-01-26T17:13:52;-0.70;99.90
19888;DHT22;10106;51.332;12.336;2023-01-26T17:16:22;-0.60;99.90
19888;DHT22;10106;51.332;12.336;2023-01-26T17:18:51;-0.70;99.90
19888;DHT22;10106;51.332;12.336;2023-01-26T17:21:18;-0.80;99.90
19888;DHT22;10106;51.332;12.336;2023-01-26T17:23:47;-0.70;99.90
19888;DHT22;10106;51.332;12.336;2023-01-26T17:26:15;-0.70;99.90
19888;DHT22;10106;51.332;12.336;2023-01-26T17:28:46;-0.70;99.90
19888;DHT22;10106;51.332;12.336;2023-01-26T17:31:15;-0.70;99.90
19888;DHT22;10106;51.332;12.336;2023-01-26T17:33:42;-0.70;99.90
19888;DHT22;10106;51.332;12.336;2023-01-26T17:36:09;-0.70;99.90
19888;DHT22;10106;51.332;12.336;2023-01-26T17:38:35;-0.70;99.90
19888;DHT22;10106;51.332;12.336;2023-01-26T17:41:01;-0.70;99.90
19888;DHT22;10106;51.332;12.336;2023-01-26T17:43:27;-0.70;99.90
19888;DHT22;10106;51.332;12.336;2023-01-26T17:46:14;-0.70;99.90